Time;durP1;ratioP1;P1;durP2;ratioP2;P2;SDS_P1;SDS_P2;PMS_P1;PMS_P2;Temp;Humidity;BMP_temperature;BMP_pressure;BME280_temperature;BME280_humidity;BME280_pressure;Samples;Min_cycle;Max_cycle;Signal;HPM_P1;HPM_P2
2023/02/27 00:01:32;;;;;;;2.30;2.17;;;-0.60;99.90;;;;;;5012306;28;20281;-87
2023/02/27 00:03:57;;;;;;;6.43;1.77;;;-0.60;99.90;;;;;;5012019;28;20222;-87
2023/02/27 00:06:23;;;;;;;3.03;2.00;;;-0.70;99.90;;;;;;5010702;28;20177;-86
2023/02/27 00:08:48;;;;;;;3.63;2.20;;;-0.70;99.90;;;;;;5012195;28;20188;-85
2023/02/27 00:11:14;;;;;;;3.07;1.77;;;-0.70;99.90;;;;;;5016006;28;20287;-86
2023/02/27 00:13:40;;;;;;;5.90;2.47;;;-0.70;99.90;;;;;;5017199;28;20666;-86
2023/02/27 00:16:06;;;;;;;3.23;2.93;;;-0.60;99.90;;;;;;5026949;28;20192;-86
2023/02/27 00:18:32;;;;;;;3.13;2.67;;;-0.70;99.90;;;;;;5011979;28;20668;-86
2023/02/27 00:20:58;;;;;;;1.87;1.47;;;-0.70;99.90;;;;;;4994288;28;20188;-86
2023/02/27 00:23:23;;;;;;;2.40;1.60;;;-0.70;99.90;;;;;;5011824;28;20180;-86
2023/02/27 00:25:51;;;;;;;4.57;2.00;;;-0.60;99.90;;;;;;4994741;28;20713;-86
2023/02/27 00:28:16;;;;;;;1.90;1.80;;;-0.70;99.90;;;;;;5025830;28;20194;-87
2023/02/27 00:30:43;;;;;;;1.87;1.70;;;-0.70;99.90;;;;;;5031545;28;20295;-86
2023/02/27 00:33:09;;;;;;;4.17;2.47;;;-0.70;99.90;;;;;;5013670;28;20188;-87
2023/02/27 00:35:34;;;;;;;2.00;1.47;;;-0.70;99.90;;;;;;4998233;28;20188;-87
2023/02/27 00:38:01;;;;;;;3.17;2.17;;;-0.60;99.90;;;;;;5017262;28;20707;-89
2023/02/27 00:40:26;;;;;;;1.40;1.30;;;-0.70;99.90;;;;;;5035191;28;20292;-87
2023/02/27 00:42:53;;;;;;;1.67;1.57;;;-0.60;99.90;;;;;;4998756;28;20221;-86
2023/02/27 00:45:19;;;;;;;1.77;1.67;;;-0.60;99.90;;;;;;5015571;28;20196;-87
2023/02/27 00:47:45;;;;;;;1.60;1.50;;;-0.60;99.90;;;;;;5034026;28;20177;-86
2023/02/27 00:50:11;;;;;;;1.80;1.70;;;-0.50;99.90;;;;;;5004737;28;20311;-86
2023/02/27 00:52:37;;;;;;;4.40;2.37;;;-0.50;99.90;;;;;;5015474;28;20653;-86
2023/02/27 00:55:04;;;;;;;5.60;2.60;;;-0.60;99.90;;;;;;4997288;28;20179;-86
2023/02/27 00:57:29;;;;;;;2.30;2.00;;;-0.60;99.90;;;;;;5009902;28;20185;-86
2023/02/27 00:59:55;;;;;;;2.30;1.97;;;-0.60;99.90;;;;;;5014585;28;20233;-86
2023/02/27 01:02:21;;;;;;;3.13;1.90;;;-0.60;99.90;;;;;;4997061;28;20645;-86
2023/02/27 01:04:47;;;;;;;1.50;1.47;;;-0.60;99.90;;;;;;5013645;28;20219;-86
2023/02/27 01:07:12;;;;;;;3.03;1.40;;;-0.60;99.90;;;;;;5013325;28;20177;-86
2023/02/27 01:09:38;;;;;;;2.83;2.13;;;0.30;99.90;;;;;;5013297;28;20253;-86
2023/02/27 01:12:04;;;;;;;1.27;1.23;;;-0.60;99.90;;;;;;5017216;28;20248;-86
2023/02/27 01:14:30;;;;;;;2.60;1.40;;;-0.60;99.90;;;;;;5010477;28;20185;-87
2023/02/27 01:16:56;;;;;;;2.40;2.20;;;-0.60;99.90;;;;;;4996784;28;20192;-86
2023/02/27 01:19:23;;;;;;;3.33;1.50;;;-0.60;99.90;;;;;;5014179;28;20223;-86
2023/02/27 01:21:49;;;;;;;1.20;1.20;;;-0.60;99.90;;;;;;5014348;28;20191;-85
2023/02/27 01:24:15;;;;;;;1.77;1.63;;;-0.60;99.90;;;;;;5013907;28;20180;-88
2023/02/27 01:26:41;;;;;;;1.53;1.53;;;-0.50;99.90;;;;;;5014684;28;20615;-87
2023/02/27 01:29:07;;;;;;;3.17;2.07;;;-0.50;99.90;;;;;;5022306;28;20659;-86
2023/02/27 01:31:33;;;;;;;1.20;1.20;;;-0.60;99.90;;;;;;5016049;28;20208;-88
2023/02/27 01:33:58;;;;;;;1.57;1.47;;;-0.60;99.90;;;;;;5016083;28;20274;-85
2023/02/27 01:36:24;;;;;;;1.27;1.20;;;-0.50;99.90;;;;;;5026074;28;20211;-87
2023/02/27 01:38:50;;;;;;;1.23;1.23;;;-0.50;99.90;;;;;;5040495;28;20207;-87
2023/02/27 01:41:15;;;;;;;2.40;1.33;;;-0.40;99.90;;;;;;5031555;28;20211;-87
2023/02/27 01:43:55;;;;;;;2.23;1.80;;;-0.50;99.90;;;;;;5050989;28;20205;-85
2023/02/27 01:46:21;;;;;;;1.30;1.20;;;-0.50;99.90;;;;;;5046586;28;20180;-86
2023/02/27 01:48:46;;;;;;;1.47;1.40;;;-0.50;99.90;;;;;;5013234;28;20188;-87
2023/02/27 01:51:18;;;;;;;1.23;1.17;;;-0.60;99.90;;;;;;4996287;28;20209;-86
2023/02/27 01:53:47;;;;;;;4.43;1.20;;;-0.60;99.90;;;;;;5013034;28;20200;-87
2023/02/27 01:56:20;;;;;;;2.00;1.30;;;-0.40;99.90;;;;;;5000983;28;20191;-87
2023/02/27 01:58:47;;;;;;;6.53;1.30;;;-0.50;99.90;;;;;;5024291;28;20183;-86
2023/02/27 02:01:14;;;;;;;2.17;1.33;;;-0.50;99.90;;;;;;5019702;28;20318;-86
2023/02/27 02:03:51;;;;;;;3.87;2.07;;;-0.50;99.90;;;;;;5033416;28;20175;-86
2023/02/27 02:06:17;;;;;;;1.00;1.00;;;-0.50;99.90;;;;;;5015436;28;20169;-86
2023/02/27 02:08:46;;;;;;;1.17;1.17;;;-0.50;99.90;;;;;;5033531;28;20263;-85
2023/02/27 02:11:16;;;;;;;1.23;1.13;;;-0.50;99.90;;;;;;5030794;28;20254;-86
2023/02/27 02:13:42;;;;;;;1.20;1.20;;;-0.50;99.90;;;;;;5022201;28;20235;-86
2023/02/27 02:16:31;;;;;;;0.90;0.90;;;-0.40;99.90;;;;;;5016560;28;20185;-86
2023/02/27 02:19:05;;;;;;;0.90;0.90;;;-0.50;99.90;;;;;;5012188;28;20514;-86
2023/02/27 02:21:39;;;;;;;1.30;1.20;;;-0.50;99.90;;;;;;5028876;28;20683;-85
2023/02/27 02:24:23;;;;;;;1.70;1.10;;;-0.50;99.90;;;;;;5032966;28;20176;-86
2023/02/27 02:27:04;;;;;;;1.17;1.13;;;-0.50;99.90;;;;;;5013099;28;20187;-86
2023/02/27 02:29:36;;;;;;;1.10;1.07;;;-0.50;99.90;;;;;;5027384;28;20513;-87
2023/02/27 02:32:30;;;;;;;2.63;1.40;;;-0.50;99.90;;;;;;5016734;28;20208;-86
2023/02/27 02:35:17;;;;;;;1.47;1.37;;;-0.50;99.90;;;;;;5013119;28;20173;-87
2023/02/27 02:38:05;;;;;;;1.80;1.70;;;-0.60;99.90;;;;;;4995559;28;20207;-86
2023/02/27 02:40:36;;;;;;;1.07;1.07;;;-0.60;99.90;;;;;;5012799;28;20658;-87
2023/02/27 02:43:19;;;;;;;4.23;1.73;;;-0.60;99.90;;;;;;5024595;28;20199;-88
2023/02/27 02:45:44;;;;;;;3.53;2.97;;;-0.60;99.90;;;;;;5013179;28;20255;-87
2023/02/27 02:48:20;;;;;;;3.60;2.73;;;-0.50;99.90;;;;;;4995584;28;20188;-87
2023/02/27 02:51:09;;;;;;;3.87;2.63;;;-0.60;99.90;;;;;;4995700;28;20248;-86
2023/02/27 02:53:41;;;;;;;5.40;3.03;;;-0.50;99.90;;;;;;5012962;28;20174;-86
2023/02/27 02:56:13;;;;;;;1.97;1.77;;;-0.60;99.90;;;;;;5018301;28;20184;-87
2023/02/27 02:58:53;;;;;;;9.07;3.50;;;-0.90;99.90;;;;;;5022081;28;20181;-86
2023/02/27 03:01:30;;;;;;;7.03;2.17;;;-0.50;99.90;;;;;;5025159;28;20619;-86
2023/02/27 03:04:02;;;;;;;6.70;3.33;;;-0.60;99.90;;;;;;5012963;28;20172;-86
2023/02/27 03:06:36;;;;;;;1.77;1.57;;;-0.50;99.90;;;;;;5030723;28;20653;-85
2023/02/27 03:09:24;;;;;;;3.27;1.53;;;-0.50;99.90;;;;;;5029453;28;20207;-86
2023/02/27 03:11:52;;;;;;;5.10;2.13;;;-0.60;99.90;;;;;;5011608;28;20745;-85
2023/02/27 03:14:22;;;;;;;1.53;1.43;;;-0.50;99.90;;;;;;5013903;28;20191;-86
2023/02/27 03:16:53;;;;;;;3.50;1.77;;;-0.60;99.90;;;;;;5018835;28;20195;-86
2023/02/27 03:19:26;;;;;;;2.57;1.93;;;-0.50;99.90;;;;;;5012506;28;20184;-86
2023/02/27 03:22:17;;;;;;;6.17;3.40;;;-0.60;99.90;;;;;;5012741;28;20675;-85
2023/02/27 03:24:59;;;;;;;2.13;1.73;;;-0.50;99.90;;;;;;5011215;28;20606;-86
2023/02/27 03:27:34;;;;;;;1.27;1.20;;;-0.50;99.90;;;;;;4995069;28;20184;-86
2023/02/27 03:30:18;;;;;;;1.57;1.47;;;-0.60;99.90;;;;;;5013018;28;20180;-86
2023/02/27 03:32:46;;;;;;;1.53;1.43;;;-0.60;99.90;;;;;;5022559;28;20194;-86
2023/02/27 03:35:12;;;;;;;2.50;2.17;;;-0.60;99.90;;;;;;5032301;28;20255;-86
2023/02/27 03:37:59;;;;;;;7.60;2.57;;;-0.50;99.90;;;;;;5031951;28;20181;-86
2023/02/27 03:40:41;;;;;;;9.57;2.53;;;-0.50;99.90;;;;;;5011117;28;20633;-87
2023/02/27 03:43:18;;;;;;;2.67;2.50;;;-0.50;99.90;;;;;;4997530;28;20187;-87
2023/02/27 03:45:57;;;;;;;4.70;2.40;;;-0.60;99.90;;;;;;5018343;28;20188;-86
2023/02/27 03:48:23;;;;;;;2.83;2.63;;;-0.50;99.90;;;;;;5029569;28;20172;-87
2023/02/27 03:50:49;;;;;;;2.17;1.80;;;-0.50;99.90;;;;;;5011098;28;20205;-86
2023/02/27 03:53:24;;;;;;;2.13;1.93;;;-0.60;99.90;;;;;;5012293;28;20504;-86
2023/02/27 03:55:50;;;;;;;1.87;1.53;;;-0.60;99.90;;;;;;4994510;28;20224;-87
2023/02/27 03:58:16;;;;;;;1.43;1.37;;;-0.60;99.90;;;;;;5018620;28;20184;-87
2023/02/27 04:00:42;;;;;;;2.60;1.87;;;-0.60;99.90;;;;;;5012003;28;20240;-86
2023/02/27 04:03:08;;;;;;;4.20;1.87;;;-0.70;99.90;;;;;;4994228;28;20173;-87
2023/02/27 04:05:34;;;;;;;5.20;2.20;;;-0.70;99.90;;;;;;5010766;28;20264;-87
2023/02/27 04:08:11;;;;;;;3.70;1.60;;;-0.70;99.90;;;;;;5011877;28;20526;-87
2023/02/27 04:10:43;;;;;;;3.20;2.90;;;-0.80;99.90;;;;;;5011325;28;20224;-85
2023/02/27 04:13:37;;;;;;;1.93;1.73;;;-0.80;99.90;;;;;;5014547;28;20634;-87
2023/02/27 04:16:14;;;;;;;1.77;1.37;;;-0.90;99.90;;;;;;5019581;28;20683;-86
2023/02/27 04:18:48;;;;;;;1.93;1.83;;;-0.90;99.90;;;;;;5019468;28;20176;-87
2023/02/27 04:21:35;;;;;;;4.23;2.30;;;-1.00;99.90;;;;;;5035580;28;20180;-86
2023/02/27 04:24:14;;;;;;;2.63;2.43;;;-1.10;99.90;;;;;;5032726;28;20181;-87
2023/02/27 04:27:05;;;;;;;1.80;1.70;;;-1.10;99.90;;;;;;5014584;28;20185;-86
2023/02/27 04:30:00;;;;;;;1.77;1.67;;;-1.00;99.90;;;;;;5018429;28;20193;-86
2023/02/27 04:32:42;;;;;;;6.57;2.33;;;-1.00;99.90;;;;;;5014291;28;20677;-86
2023/02/27 04:35:27;;;;;;;2.20;1.80;;;-1.00;99.90;;;;;;5027428;28;20175;-85
2023/02/27 04:38:05;;;;;;;7.67;2.77;;;-1.00;99.90;;;;;;5017281;28;20189;-86
2023/02/27 04:40:42;;;;;;;3.17;1.63;;;-1.00;99.90;;;;;;5015131;28;20227;-86
2023/02/27 04:43:11;;;;;;;1.93;1.83;;;-1.00;99.90;;;;;;5020780;28;20267;-86
2023/02/27 04:45:40;;;;;;;1.00;1.00;;;-1.00;99.90;;;;;;5024837;28;20177;-86
2023/02/27 04:48:14;;;;;;;1.23;1.20;;;-1.00;99.90;;;;;;5016971;28;20191;-87
2023/02/27 04:50:49;;;;;;;1.73;1.57;;;-1.00;99.90;;;;;;5016716;28;20288;-88
2023/02/27 04:53:20;;;;;;;1.70;1.60;;;-1.00;99.90;;;;;;5017180;28;20204;-88
2023/02/27 04:55:50;;;;;;;5.23;1.53;;;-0.90;99.90;;;;;;5017121;28;20176;-86
2023/02/27 04:58:33;;;;;;;1.37;1.30;;;-0.90;99.90;;;;;;5035037;28;20164;-86
2023/02/27 05:01:04;;;;;;;2.77;2.03;;;-0.90;99.90;;;;;;5035005;28;20232;-86
2023/02/27 05:03:42;;;;;;;1.73;1.63;;;-0.90;99.90;;;;;;5017019;28;20187;-87
2023/02/27 05:06:10;;;;;;;1.17;1.13;;;-1.00;99.90;;;;;;5016846;28;20186;-87
2023/02/27 05:08:41;;;;;;;2.13;1.93;;;-0.90;99.90;;;;;;5017153;28;20208;-87
2023/02/27 05:11:10;;;;;;;2.33;2.13;;;-0.90;99.90;;;;;;5034883;28;20188;-86
2023/02/27 05:13:48;;;;;;;26.53;2.80;;;-1.00;99.90;;;;;;5035101;28;20179;-89
2023/02/27 05:16:35;;;;;;;2.90;2.17;;;-0.90;99.90;;;;;;5025246;28;20221;-86
2023/02/27 05:19:02;;;;;;;1.67;1.57;;;-1.00;99.90;;;;;;5042373;28;20628;-88
2023/02/27 05:21:59;;;;;;;2.07;1.87;;;-0.90;99.90;;;;;;5039245;28;20184;-86
2023/02/27 05:24:37;;;;;;;2.57;2.33;;;-0.90;99.90;;;;;;4986932;28;20292;-87
2023/02/27 05:27:35;;;;;;;21.00;7.47;;;-1.00;99.90;;;;;;5054835;28;20254;-86
2023/02/27 05:30:27;;;;;;;18.77;8.40;;;-1.00;99.90;;;;;;5024573;28;20202;-89
2023/02/27 05:33:18;;;;;;;6.40;4.03;;;-1.00;99.90;;;;;;5010286;28;20247;-87
2023/02/27 05:36:04;;;;;;;4.90;3.33;;;-1.00;99.90;;;;;;5014473;28;20181;-85
2023/02/27 05:38:40;;;;;;;2.80;2.60;;;-1.00;99.90;;;;;;5013989;28;20691;-86
2023/02/27 05:41:11;;;;;;;4.93;2.43;;;-1.00;99.90;;;;;;5014608;28;20184;-87
2023/02/27 05:43:49;;;;;;;2.17;2.00;;;-0.40;99.90;;;;;;5013018;28;20200;-87
2023/02/27 05:46:27;;;;;;;2.50;2.30;;;-1.10;99.90;;;;;;5016325;28;20217;-85
2023/02/27 05:49:01;;;;;;;3.50;1.77;;;-1.00;99.90;;;;;;5031718;28;20176;-86
2023/02/27 05:51:30;;;;;;;3.57;2.10;;;-1.10;99.90;;;;;;5009014;28;20249;-87
2023/02/27 05:54:12;;;;;;;3.17;2.80;;;-0.90;99.90;;;;;;5030582;28;20259;-85
2023/02/27 05:56:42;;;;;;;2.17;2.00;;;-1.10;99.90;;;;;;5014990;28;20582;-86
2023/02/27 05:59:17;;;;;;;3.33;1.87;;;-1.10;99.90;;;;;;5015504;28;20629;-86
2023/02/27 06:01:43;;;;;;;13.07;2.87;;;-1.00;99.90;;;;;;5032986;28;20269;-87
2023/02/27 06:04:09;;;;;;;3.63;1.80;;;-1.00;99.90;;;;;;5033782;28;20632;-86
2023/02/27 06:06:36;;;;;;;1.73;1.63;;;-1.00;99.90;;;;;;4998165;28;20278;-85
2023/02/27 06:09:01;;;;;;;1.77;1.67;;;-0.90;99.90;;;;;;5015298;28;20693;-85
2023/02/27 06:11:27;;;;;;;2.37;2.17;;;-0.90;99.90;;;;;;4996836;28;20306;-85
2023/02/27 06:13:53;;;;;;;1.93;1.63;;;-0.80;99.90;;;;;;5000035;28;20645;-85
2023/02/27 06:16:18;;;;;;;2.20;1.63;;;-0.90;99.90;;;;;;4998635;28;20500;-84
2023/02/27 06:18:44;;;;;;;1.40;1.30;;;-0.90;99.90;;;;;;4999835;28;20180;-85
2023/02/27 06:21:12;;;;;;;1.67;1.57;;;-0.90;99.90;;;;;;5015481;28;20181;-85
2023/02/27 06:23:37;;;;;;;4.83;3.67;;;-0.80;99.90;;;;;;5033137;28;20184;-85
2023/02/27 06:26:03;;;;;;;27.23;3.77;;;-0.90;99.90;;;;;;4998476;28;20181;-85
2023/02/27 06:28:29;;;;;;;15.50;4.57;;;-0.90;99.90;;;;;;5033668;28;20189;-85
2023/02/27 06:30:55;;;;;;;8.43;3.93;;;-0.80;99.90;;;;;;5009747;28;20725;-85
2023/02/27 06:33:22;;;;;;;1.77;1.43;;;-0.80;99.90;;;;;;5026592;28;20199;-88
2023/02/27 06:35:48;;;;;;;8.97;1.80;;;-0.80;99.90;;;;;;5019601;28;20188;-86
2023/02/27 06:38:14;;;;;;;2.33;1.80;;;-0.80;99.90;;;;;;5023900;28;20189;-84
2023/02/27 06:40:40;;;;;;;3.13;2.17;;;-0.80;99.90;;;;;;5003803;28;20632;-85
2023/02/27 06:43:05;;;;;;;2.50;2.33;;;-0.80;99.90;;;;;;5032869;28;20223;-85
2023/02/27 06:45:31;;;;;;;4.50;3.10;;;-0.60;99.90;;;;;;5011791;28;20193;-85
2023/02/27 06:47:57;;;;;;;4.37;2.60;;;-0.40;99.90;;;;;;4998537;28;20708;-86
2023/02/27 06:50:22;;;;;;;8.53;2.80;;;1.50;99.90;;;;;;4998125;28;20973;-86
2023/02/27 06:52:48;;;;;;;4.20;2.97;;;-0.20;99.90;;;;;;5031942;28;20641;-86
2023/02/27 06:55:19;;;;;;;5.50;1.70;;;-0.10;99.90;;;;;;5014950;28;20177;-85
2023/02/27 06:57:46;;;;;;;9.17;2.50;;;0.00;99.90;;;;;;5000338;28;20189;-86
2023/02/27 07:00:12;;;;;;;1.23;1.13;;;0.20;99.90;;;;;;5012687;28;20232;-86
2023/02/27 07:02:38;;;;;;;2.87;2.30;;;0.10;99.90;;;;;;5026102;28;20213;-89
2023/02/27 07:05:04;;;;;;;7.13;2.67;;;0.10;99.90;;;;;;5032914;28;20219;-86
2023/02/27 07:07:29;;;;;;;1.57;1.47;;;0.20;99.90;;;;;;5014921;28;20234;-86
2023/02/27 07:09:55;;;;;;;9.03;2.00;;;0.20;99.90;;;;;;5011426;28;20544;-86
2023/02/27 07:12:21;;;;;;;10.60;2.63;;;0.30;99.90;;;;;;5004596;28;20244;-87
2023/02/27 07:14:48;;;;;;;10.40;3.40;;;0.40;99.90;;;;;;5011112;28;20212;-86
2023/02/27 07:17:13;;;;;;;1.43;1.33;;;0.40;99.90;;;;;;5023645;28;20217;-86
2023/02/27 07:19:39;;;;;;;5.20;2.03;;;0.40;99.90;;;;;;5003882;28;20189;-89
2023/02/27 07:22:05;;;;;;;3.80;1.70;;;0.50;99.90;;;;;;4998992;28;20188;-85
2023/02/27 07:24:30;;;;;;;1.83;1.73;;;0.50;99.90;;;;;;5023363;28;20180;-84
2023/02/27 07:26:56;;;;;;;1.60;1.50;;;0.60;99.90;;;;;;5007568;28;20192;-86
2023/02/27 07:29:22;;;;;;;1.90;1.77;;;0.70;99.90;;;;;;4992124;28;20187;-88
2023/02/27 07:31:47;;;;;;;5.30;2.20;;;0.70;99.90;;;;;;5023095;28;20219;-86
2023/02/27 07:34:14;;;;;;;4.57;2.87;;;0.70;99.90;;;;;;5022122;28;20220;-86
2023/02/27 07:36:40;;;;;;;1.20;1.17;;;0.70;99.20;;;;;;4990753;28;20177;-87
2023/02/27 07:39:07;;;;;;;5.13;2.10;;;0.80;98.00;;;;;;5001699;28;20185;-85
2023/02/27 07:41:33;;;;;;;4.53;2.37;;;0.80;97.20;;;;;;5005452;28;20198;-85
2023/02/27 07:43:59;;;;;;;7.33;1.53;;;0.90;97.20;;;;;;5019181;28;20199;-85
2023/02/27 07:46:26;;;;;;;9.43;3.50;;;1.00;97.50;;;;;;4997146;28;20188;-85
2023/02/27 07:48:54;;;;;;;15.90;4.17;;;1.00;96.80;;;;;;4996765;28;20222;-85
2023/02/27 07:51:20;;;;;;;3.07;1.73;;;1.00;96.00;;;;;;5013395;28;20216;-85
2023/02/27 07:53:46;;;;;;;4.40;1.47;;;1.10;95.30;;;;;;5013794;28;20188;-87
2023/02/27 07:56:12;;;;;;;2.83;2.57;;;1.10;95.50;;;;;;4998092;28;20525;-86
2023/02/27 07:58:38;;;;;;;4.33;3.20;;;1.10;95.00;;;;;;5014503;28;20238;-87
2023/02/27 08:01:08;;;;;;;8.63;3.40;;;1.10;94.90;;;;;;5008705;28;20322;-86
2023/02/27 08:03:34;;;;;;;3.17;1.90;;;1.10;94.30;;;;;;5006360;28;20189;-84
2023/02/27 08:06:00;;;;;;;21.77;4.70;;;1.00;95.00;;;;;;5028150;28;20199;-84
2023/02/27 08:08:25;;;;;;;8.77;4.00;;;0.90;94.40;;;;;;4994609;28;20169;-86
2023/02/27 08:10:51;;;;;;;11.50;4.37;;;0.90;94.60;;;;;;5005088;28;20210;-86
2023/02/27 08:13:17;;;;;;;15.63;3.97;;;0.90;95.20;;;;;;5021444;28;20535;-85
2023/02/27 08:15:42;;;;;;;2.00;1.90;;;0.90;94.40;;;;;;5022070;28;20291;-86
2023/02/27 08:18:08;;;;;;;4.47;2.37;;;1.00;95.40;;;;;;4994751;28;20184;-86
2023/02/27 08:20:35;;;;;;;1.47;1.37;;;0.90;94.80;;;;;;5010966;28;20587;-85
2023/02/27 08:23:01;;;;;;;1.23;1.23;;;0.80;92.90;;;;;;5013599;28;20177;-85
2023/02/27 08:25:27;;;;;;;1.80;1.70;;;0.80;93.80;;;;;;4997141;28;20242;-85
2023/02/27 08:27:52;;;;;;;7.83;2.43;;;1.00;93.90;;;;;;5030941;28;20695;-86
2023/02/27 08:30:18;;;;;;;4.73;2.47;;;1.00;94.50;;;;;;4996610;28;20182;-86
2023/02/27 08:32:44;;;;;;;6.03;3.23;;;1.10;95.40;;;;;;4996824;28;20196;-86
2023/02/27 08:35:11;;;;;;;12.57;2.43;;;1.30;95.90;;;;;;5026122;28;20183;-86
2023/02/27 08:37:36;;;;;;;2.80;2.20;;;1.40;94.10;;;;;;5029993;28;20180;-85
2023/02/27 08:40:05;;;;;;;1.53;1.43;;;1.50;93.50;;;;;;5031538;28;20266;-86
2023/02/27 08:42:31;;;;;;;3.30;1.92;;;2.40;94.10;;;;;;5013530;28;20406;-88
2023/02/27 08:44:57;;;;;;;3.20;2.10;;;1.60;94.10;;;;;;4997680;28;20215;-86
2023/02/27 08:47:23;;;;;;;3.50;1.60;;;1.70;93.20;;;;;;5031523;28;20222;-87
2023/02/27 08:49:48;;;;;;;1.40;1.27;;;1.80;93.10;;;;;;5013672;28;20223;-87
2023/02/27 08:52:14;;;;;;;1.73;1.63;;;1.90;92.50;;;;;;5013886;28;20204;-86
2023/02/27 08:54:40;;;;;;;4.13;1.97;;;1.80;92.60;;;;;;5013951;28;20632;-87
2023/02/27 08:57:05;;;;;;;4.53;2.17;;;1.70;92.40;;;;;;5014768;28;20184;-87
2023/02/27 08:59:31;;;;;;;1.50;1.40;;;1.80;92.20;;;;;;5035295;28;20224;-86
2023/02/27 09:01:57;;;;;;;1.83;1.70;;;2.00;93.70;;;;;;5017397;28;20187;-86
2023/02/27 09:04:23;;;;;;;4.13;2.60;;;2.10;91.40;;;;;;5034795;28;20183;-86
2023/02/27 09:06:49;;;;;;;5.50;2.23;;;2.00;89.90;;;;;;5034514;28;20181;-89
2023/02/27 09:09:15;;;;;;;3.10;2.23;;;1.90;88.90;;;;;;5016796;28;20189;-86
2023/02/27 09:11:40;;;;;;;1.20;1.00;;;1.90;89.10;;;;;;5016885;28;20219;-86
2023/02/27 09:14:06;;;;;;;3.50;1.93;;;2.00;87.00;;;;;;5000471;28;20281;-85
2023/02/27 09:16:32;;;;;;;3.37;1.67;;;1.90;88.90;;;;;;5000346;28;20299;-87
2023/02/27 09:18:58;;;;;;;3.90;1.20;;;1.80;85.20;;;;;;5000388;28;20547;-88
2023/02/27 09:21:24;;;;;;;2.73;0.90;;;1.50;87.50;;;;;;5016799;28;20180;-85
2023/02/27 09:23:50;;;;;;;3.40;1.47;;;1.60;89.20;;;;;;5034775;28;20184;-88
2023/02/27 09:26:16;;;;;;;1.47;1.37;;;1.60;89.00;;;;;;5016580;28;20194;-86
2023/02/27 09:28:42;;;;;;;2.17;1.00;;;1.50;87.90;;;;;;5016675;28;20196;-85
2023/02/27 09:31:08;;;;;;;2.37;1.87;;;1.50;85.50;;;;;;5016573;28;20211;-88
2023/02/27 09:33:36;;;;;;;1.90;1.17;;;1.30;88.20;;;;;;5034494;28;20179;-84
2023/02/27 09:36:04;;;;;;;3.03;1.70;;;1.30;86.10;;;;;;5016584;28;20172;-85
2023/02/27 09:38:30;;;;;;;2.87;1.27;;;1.30;86.60;;;;;;5034292;28;20197;-85
2023/02/27 09:40:58;;;;;;;1.97;1.33;;;1.40;88.80;;;;;;5016601;28;20185;-83
2023/02/27 09:43:38;;;;;;;1.00;1.00;;;1.40;90.20;;;;;;5017093;28;20519;-84
2023/02/27 09:46:05;;;;;;;1.43;1.30;;;1.50;87.20;;;;;;5034463;28;20256;-85
2023/02/27 09:48:36;;;;;;;0.90;0.90;;;1.60;88.30;;;;;;5034355;28;20172;-85
2023/02/27 09:51:02;;;;;;;1.70;1.37;;;1.70;90.10;;;;;;5016120;28;20230;-85
2023/02/27 09:53:40;;;;;;;2.57;1.33;;;1.70;87.50;;;;;;5034271;28;20624;-84
2023/02/27 09:56:16;;;;;;;0.93;0.93;;;1.60;84.10;;;;;;5034153;28;20171;-84
2023/02/27 09:58:58;;;;;;;7.37;1.07;;;1.70;85.20;;;;;;5034213;28;20181;-86
2023/02/27 10:01:57;;;;;;;1.30;1.20;;;1.80;84.10;;;;;;5016148;28;20239;-85
2023/02/27 10:04:39;;;;;;;2.57;1.80;;;2.00;83.80;;;;;;5033836;28;20172;-86
2023/02/27 10:07:15;;;;;;;4.13;1.47;;;2.00;82.20;;;;;;5033749;28;20173;-85
2023/02/27 10:09:54;;;;;;;3.17;1.70;;;1.80;83.10;;;;;;5015251;28;20651;-85
2023/02/27 10:12:31;;;;;;;1.73;1.60;;;1.90;86.00;;;;;;5033757;28;20253;-85
2023/02/27 10:15:25;;;;;;;4.33;1.20;;;1.90;85.20;;;;;;5033730;28;20194;-85
2023/02/27 10:18:04;;;;;;;2.83;1.37;;;1.80;84.80;;;;;;5039348;28;20178;-83
2023/02/27 10:20:33;;;;;;;1.63;1.53;;;1.70;84.10;;;;;;5020303;28;20590;-83
2023/02/27 10:23:22;;;;;;;1.23;1.13;;;1.70;85.20;;;;;;5016051;28;20264;-85
2023/02/27 10:25:50;;;;;;;1.80;1.33;;;1.70;85.00;;;;;;5019378;28;20507;-87
2023/02/27 10:28:20;;;;;;;3.73;1.83;;;1.60;84.60;;;;;;5000132;28;20188;-84
2023/02/27 10:30:58;;;;;;;1.67;1.57;;;1.60;85.80;;;;;;5034508;28;20202;-83
2023/02/27 10:33:38;;;;;;;1.47;1.23;;;1.70;86.00;;;;;;5034022;28;20222;-84
2023/02/27 10:36:10;;;;;;;4.70;1.57;;;1.60;83.10;;;;;;5033380;28;20177;-84
2023/02/27 10:38:43;;;;;;;1.63;1.53;;;1.50;80.70;;;;;;5015871;28;20573;-85
2023/02/27 10:41:15;;;;;;;2.83;1.60;;;1.70;82.30;;;;;;5014992;28;20511;-84
2023/02/27 10:43:41;;;;;;;3.47;1.30;;;2.00;81.70;;;;;;5033963;28;20165;-85
2023/02/27 10:46:24;;;;;;;3.20;1.60;;;2.00;78.20;;;;;;5031833;28;20180;-86
2023/02/27 10:48:51;;;;;;;1.53;1.27;;;1.80;79.80;;;;;;5033096;28;20175;-84
2023/02/27 10:51:33;;;;;;;1.60;1.40;;;1.90;81.60;;;;;;5033022;28;20203;-89
2023/02/27 10:54:17;;;;;;;13.00;1.57;;;1.90;80.50;;;;;;5015178;28;20197;-89
2023/02/27 10:56:55;;;;;;;1.47;1.33;;;1.80;78.00;;;;;;5033189;28;20183;-84
2023/02/27 10:59:39;;;;;;;0.80;0.80;;;2.00;80.80;;;;;;5014826;28;20171;-84
2023/02/27 11:02:34;;;;;;;3.30;1.70;;;2.20;81.90;;;;;;5032351;28;20177;-84
2023/02/27 11:05:01;;;;;;;1.30;1.20;;;2.30;78.00;;;;;;5015075;28;20183;-86
2023/02/27 11:07:30;;;;;;;2.47;1.70;;;2.20;78.40;;;;;;5015193;28;20179;-86
2023/02/27 11:10:11;;;;;;;6.40;1.50;;;2.10;77.20;;;;;;5032487;28;20229;-84
2023/02/27 11:12:37;;;;;;;2.77;1.80;;;1.90;77.70;;;;;;5032491;28;20234;-85
2023/02/27 11:15:14;;;;;;;2.87;1.43;;;1.90;79.00;;;;;;5032986;28;20273;-85
2023/02/27 11:17:41;;;;;;;1.43;1.33;;;2.00;79.30;;;;;;5032662;28;20181;-86
2023/02/27 11:20:38;;;;;;;1.73;1.63;;;2.10;78.30;;;;;;5039145;28;20170;-84
2023/02/27 11:23:24;;;;;;;1.67;1.57;;;2.20;78.20;;;;;;5037219;28;20172;-85
2023/02/27 11:25:50;;;;;;;1.37;1.27;;;2.20;79.70;;;;;;5014588;28;20538;-86
2023/02/27 11:28:24;;;;;;;2.50;1.87;;;2.30;79.20;;;;;;4998134;28;20172;-85
2023/02/27 11:31:02;;;;;;;2.17;1.70;;;2.30;78.50;;;;;;5032119;28;20212;-86
2023/02/27 11:33:32;;;;;;;2.10;1.30;;;2.30;81.30;;;;;;5031738;28;20179;-85
2023/02/27 11:35:58;;;;;;;2.03;1.53;;;2.30;80.00;;;;;;4998885;28;20190;-85
2023/02/27 11:38:27;;;;;;;1.70;1.20;;;2.30;79.40;;;;;;5031876;28;20270;-84
2023/02/27 11:41:02;;;;;;;4.37;1.30;;;2.20;79.30;;;;;;5032284;28;20172;-85
2023/02/27 11:43:38;;;;;;;2.43;1.50;;;2.20;79.70;;;;;;5031627;28;20233;-85
2023/02/27 11:46:09;;;;;;;1.43;1.33;;;2.10;77.10;;;;;;5031909;28;20684;-90
2023/02/27 11:48:46;;;;;;;9.60;1.50;;;2.10;79.30;;;;;;5014248;28;20473;-86
2023/02/27 11:51:23;;;;;;;2.10;1.90;;;2.20;78.40;;;;;;5014794;28;20207;-85
2023/02/27 11:54:08;;;;;;;1.93;1.20;;;2.10;75.40;;;;;;5015242;28;20185;-85
2023/02/27 11:56:43;;;;;;;1.50;1.40;;;1.60;76.60;;;;;;5032484;28;20521;-85
2023/02/27 11:59:31;;;;;;;1.57;1.47;;;1.50;77.60;;;;;;5032292;28;20168;-85
2023/02/27 12:02:02;;;;;;;1.33;1.23;;;1.60;77.90;;;;;;5015080;28;20201;-84
2023/02/27 12:04:50;;;;;;;3.20;1.77;;;1.60;78.70;;;;;;5032345;28;20231;-84
2023/02/27 12:07:19;;;;;;;1.53;1.43;;;1.70;78.30;;;;;;5032695;28;20354;-85
2023/02/27 12:09:58;;;;;;;3.77;2.33;;;1.80;78.70;;;;;;5032612;28;20239;-85
2023/02/27 12:12:50;;;;;;;3.03;1.90;;;1.80;79.60;;;;;;5014578;28;20208;-85
2023/02/27 12:16:04;;;;;;;5.17;2.33;;;1.50;78.70;;;;;;5014526;28;20191;-84
2023/02/27 12:18:37;;;;;;;2.53;1.90;;;1.50;79.30;;;;;;4978250;28;20190;-84
2023/02/27 12:21:23;;;;;;;4.03;2.20;;;1.50;78.80;;;;;;5032509;28;20176;-84
2023/02/27 12:23:52;;;;;;;1.10;1.10;;;1.50;77.90;;;;;;5032339;28;20514;-84
2023/02/27 12:26:29;;;;;;;1.90;1.53;;;1.40;77.50;;;;;;5032178;28;20648;-84
2023/02/27 12:29:13;;;;;;;1.77;1.67;;;1.40;78.00;;;;;;5032315;28;20525;-84
2023/02/27 12:31:47;;;;;;;1.63;1.53;;;1.60;80.50;;;;;;5032847;28;20294;-85
2023/02/27 12:34:26;;;;;;;1.40;1.23;;;2.00;78.00;;;;;;5019069;28;20628;-86
2023/02/27 12:36:53;;;;;;;3.27;1.50;;;2.40;77.70;;;;;;5036963;28;20184;-84
2023/02/27 12:39:22;;;;;;;5.50;1.40;;;2.70;76.90;;;;;;5018531;28;20173;-84
2023/02/27 12:42:16;;;;;;;1.63;1.50;;;2.70;74.70;;;;;;5036131;28;20215;-84
2023/02/27 12:45:00;;;;;;;1.80;1.70;;;2.80;74.60;;;;;;5019058;28;20172;-84
2023/02/27 12:47:53;;;;;;;2.37;1.70;;;2.90;74.40;;;;;;5036083;28;20521;-85
2023/02/27 12:50:22;;;;;;;3.03;1.73;;;2.90;75.20;;;;;;5018093;28;20509;-85
2023/02/27 12:52:56;;;;;;;2.63;1.67;;;2.90;75.40;;;;;;5035956;28;20212;-83
2023/02/27 12:55:32;;;;;;;1.47;1.37;;;2.80;73.70;;;;;;5018860;28;20187;-84
2023/02/27 12:58:17;;;;;;;2.23;1.70;;;2.80;73.80;;;;;;5037560;28;20176;-88
2023/02/27 13:01:00;;;;;;;1.60;1.50;;;2.70;73.00;;;;;;5018154;28;20286;-83
2023/02/27 13:03:44;;;;;;;4.63;2.10;;;2.50;74.40;;;;;;5036007;28;20211;-84
2023/02/27 13:06:24;;;;;;;4.60;1.70;;;2.30;75.90;;;;;;5018397;28;20177;-83
2023/02/27 13:09:01;;;;;;;1.40;1.30;;;2.00;77.40;;;;;;5018248;28;20219;-86
2023/02/27 13:11:42;;;;;;;2.03;1.87;;;2.00;77.40;;;;;;5017671;28;20217;-85
2023/02/27 13:14:10;;;;;;;2.50;2.13;;;2.00;77.40;;;;;;5035442;28;20179;-84
2023/02/27 13:16:59;;;;;;;7.40;3.30;;;2.00;77.30;;;;;;5035737;28;20176;-84